Time;durP1;ratioP1;P1;durP2;ratioP2;P2;SDS_P1;SDS_P2;PMS_P1;PMS_P2;Temp;Humidity;BMP_temperature;BMP_pressure;BME280_temperature;BME280_humidity;BME280_pressure;Samples;Min_cycle;Max_cycle;Signal;HPM_P1;HPM_P2
2021/11/10 00:53:41;;;;;;;37.97;26.52;;;128.50;2252.80;;;;;;5729013;24;20870;31
2021/11/10 02:13:19;;;;;;;89.90;51.13;;;128.40;2252.80;;;;;;5864469;24;20103;31
2021/11/10 02:20:13;;;;;;;65.43;35.43;;;128.50;2252.80;;;;;;5835253;24;20034;31
2021/11/10 02:43:02;;;;;;;68.05;29.88;;;128.30;2252.80;;;;;;5872541;24;20060;31
2021/11/10 02:46:12;;;;;;;87.85;30.83;;;128.30;2252.80;;;;;;5788074;24;20062;31
2021/11/10 02:49:39;;;;;;;71.63;29.20;;;128.40;2252.80;;;;;;5783708;24;20026;31
2021/11/10 02:56:00;;;;;;;58.63;27.75;;;128.30;2252.80;;;;;;5547834;24;19928;31
2021/11/10 02:59:13;;;;;;;60.85;28.50;;;128.30;2252.80;;;;;;5514166;24;20034;31
2021/11/10 03:05:03;;;;;;;59.30;28.05;;;103.20;2227.20;;;;;;5876768;24;20034;31
2021/11/10 03:08:00;;;;;;;70.05;27.13;;;128.30;2252.80;;;;;;4793306;29;20044;-84
2021/11/10 03:10:32;;;;;;;45.70;26.83;;;128.30;2252.80;;;;;;4777197;30;20408;-83
2021/11/10 03:13:10;;;;;;;45.63;26.55;;;128.20;2252.80;;;;;;4789922;30;20032;-83
2021/11/10 03:15:36;;;;;;;;;;;128.20;2252.80;;;;;;4774758;30;20056;-83
2021/11/10 03:18:05;;;;;;;54.20;25.42;;;128.10;2252.80;;;;;;4790936;30;19917;-84
2021/11/10 03:20:41;;;;;;;70.90;25.07;;;128.00;2252.80;;;;;;4789118;30;20047;-84
2021/11/10 03:23:15;;;;;;;54.28;23.98;;;128.00;2252.80;;;;;;4775619;30;20044;-84
2021/11/10 03:25:44;;;;;;;50.78;24.98;;;128.00;2252.80;;;;;;4803223;30;20104;-84
2021/11/10 03:28:22;;;;;;;39.45;23.83;;;128.10;2252.80;;;;;;4773722;30;20035;-84
2021/11/10 03:30:48;;;;;;;39.58;23.63;;;128.10;2252.80;;;;;;4775323;30;20040;-84
2021/11/10 03:33:24;;;;;;;41.43;25.43;;;128.10;2252.80;;;;;;4790631;30;20043;-84
2021/11/10 03:35:51;;;;;;;51.17;26.17;;;128.00;2252.80;;;;;;4791294;30;20035;-83
2021/11/10 03:38:19;;;;;;;49.73;26.50;;;128.10;2252.80;;;;;;4807055;29;20493;-83
2021/11/10 03:40:46;;;;;;;42.63;27.30;;;128.10;2252.80;;;;;;4763397;30;20043;-84
2021/11/10 03:43:42;;;;;;;59.70;28.73;;;128.10;2252.80;;;;;;4806160;30;20040;-84
2021/11/10 03:46:13;;;;;;;99.37;32.37;;;128.10;2252.80;;;;;;4801483;30;20055;-85
2021/11/10 03:48:49;;;;;;;69.22;29.67;;;128.20;2252.80;;;;;;4794007;30;20160;-83
2021/11/10 03:51:15;;;;;;;73.70;29.50;;;128.10;2252.80;;;;;;4806073;29;20031;-83
2021/11/10 03:53:44;;;;;;;72.00;27.70;;;128.70;2252.80;;;;;;4791720;30;20055;-83
2021/11/10 03:56:11;;;;;;;59.60;26.13;;;128.90;2252.80;;;;;;4806291;29;20031;-83
2021/11/10 03:58:40;;;;;;;56.67;26.37;;;103.30;2227.20;;;;;;4790818;30;20043;-84
2021/11/10 04:01:07;;;;;;;51.58;25.48;;;128.30;2252.80;;;;;;4806179;29;20039;-84
2021/11/10 04:03:36;;;;;;;52.28;27.15;;;128.40;2252.80;;;;;;4791954;30;20111;-84
2021/11/10 04:06:04;;;;;;;56.13;26.75;;;128.40;2252.80;;;;;;4805495;29;20031;-83
2021/11/10 04:08:42;;;;;;;53.37;25.30;;;128.40;2252.80;;;;;;4802031;30;20408;-84
2021/11/10 04:11:12;;;;;;;51.40;26.17;;;128.40;2252.80;;;;;;4789629;30;20065;-85
2021/11/10 04:14:19;;;;;;;60.38;27.02;;;128.50;2252.80;;;;;;4774110;30;20112;-84
2021/11/10 04:16:49;;;;;;;50.85;25.38;;;128.50;2252.80;;;;;;4789303;30;20028;-84
2021/11/10 04:19:20;;;;;;;42.37;25.80;;;128.50;2252.80;;;;;;4790536;30;20050;-84
2021/11/10 04:22:20;;;;;;;43.30;27.75;;;128.50;2252.80;;;;;;4789691;30;20066;-86
2021/11/10 04:25:32;;;;;;;48.75;26.08;;;128.50;2252.80;;;;;;4804217;29;20048;-85
2021/11/10 04:28:20;;;;;;;44.22;26.83;;;128.50;2252.80;;;;;;4790604;30;20054;-85
2021/11/10 04:31:10;;;;;;;44.55;27.60;;;128.50;2252.80;;;;;;4789496;30;20119;-85
2021/11/10 04:34:23;;;;;;;44.67;28.05;;;128.50;2252.80;;;;;;4789950;30;20052;-86
2021/11/10 04:37:31;;;;;;;42.42;27.55;;;128.50;2252.80;;;;;;4775944;30;20046;-85
2021/11/10 04:40:18;;;;;;;45.40;27.70;;;128.50;2252.80;;;;;;4786527;29;20698;-84
2021/11/10 04:42:48;;;;;;;40.45;28.40;;;128.50;2252.80;;;;;;4787751;30;20055;-83
2021/11/10 04:45:25;;;;;;;40.77;27.90;;;128.50;2252.80;;;;;;4774036;30;20488;-85
2021/11/10 04:47:57;;;;;;;42.85;29.40;;;128.50;2252.80;;;;;;4773099;30;20075;-84
2021/11/10 04:50:26;;;;;;;43.47;28.00;;;128.50;2252.80;;;;;;4773365;29;20032;-83
2021/11/10 04:52:59;;;;;;;38.78;26.15;;;128.60;2252.80;;;;;;4743192;30;20048;-84
2021/11/10 04:55:29;;;;;;;51.28;28.85;;;128.60;2252.80;;;;;;4772902;30;20051;-84
2021/11/10 04:58:19;;;;;;;40.78;27.65;;;128.60;2252.80;;;;;;4788045;29;20047;-84
2021/11/10 05:00:58;;;;;;;46.40;27.13;;;128.60;2252.80;;;;;;4771414;30;20062;-85
2021/11/10 05:03:37;;;;;;;59.08;27.90;;;128.60;2252.80;;;;;;4786202;30;20101;-84
2021/11/10 05:06:42;;;;;;;47.80;27.75;;;128.60;2252.80;;;;;;4774117;30;20036;-84
2021/11/10 05:09:42;;;;;;;52.78;27.90;;;128.50;2252.80;;;;;;4771007;30;20151;-85
2021/11/10 05:12:24;;;;;;;62.97;30.02;;;128.50;2252.80;;;;;;4771169;30;20048;-85
2021/11/10 05:15:04;;;;;;;62.03;27.08;;;128.50;2252.80;;;;;;4770770;30;20087;-85
2021/11/10 05:18:04;;;;;;;53.15;27.13;;;128.50;2252.80;;;;;;4758556;30;20062;-84
2021/11/10 05:21:03;;;;;;;52.13;26.73;;;128.50;2252.80;;;;;;4757844;30;20040;-84
2021/11/10 05:23:35;;;;;;;61.13;28.42;;;128.40;2252.80;;;;;;4712064;30;20111;-85
2021/11/10 05:26:23;;;;;;;60.83;29.40;;;128.50;2252.80;;;;;;4752581;30;20045;-84
2021/11/10 05:29:06;;;;;;;56.30;27.45;;;128.50;2252.80;;;;;;4737244;30;20071;-84
2021/11/10 05:31:34;;;;;;;61.78;29.48;;;128.50;2252.80;;;;;;4751898;30;20029;-84
2021/11/10 05:34:05;;;;;;;56.20;31.00;;;154.40;2252.80;;;;;;4752674;30;20121;-84
2021/11/10 05:36:33;;;;;;;63.80;35.20;;;128.50;2252.80;;;;;;4755041;30;20113;-84
2021/11/10 05:39:00;;;;;;;59.60;31.48;;;128.50;2252.80;;;;;;4754709;30;20036;-85
2021/11/10 05:41:53;;;;;;;62.03;32.07;;;128.50;2252.80;;;;;;4755711;30;20068;-84
2021/11/10 05:44:25;;;;;;;55.83;30.38;;;128.50;2252.80;;;;;;4754694;30;20096;-84
2021/11/10 05:46:52;;;;;;;56.37;30.20;;;128.40;2252.80;;;;;;4755233;30;20044;-84
2021/11/10 05:49:20;;;;;;;68.68;32.47;;;128.50;2252.80;;;;;;4754163;30;20112;-84
2021/11/10 05:51:52;;;;;;;65.20;36.22;;;128.50;2252.80;;;;;;4753817;30;20230;-84
2021/11/10 05:54:25;;;;;;;104.53;66.27;;;128.50;2252.80;;;;;;4754927;30;20056;-84
2021/11/10 05:57:04;;;;;;;80.60;45.90;;;128.10;2252.80;;;;;;4755347;30;20048;-84
2021/11/10 05:59:53;;;;;;;85.32;44.75;;;128.50;2252.80;;;;;;4754081;30;20044;-84
2021/11/10 06:02:22;;;;;;;52.60;31.52;;;128.40;2252.80;;;;;;4754355;30;20040;-84
2021/11/10 06:04:54;;;;;;;51.90;31.30;;;128.40;2252.80;;;;;;4768948;30;20044;-84
2021/11/10 06:07:48;;;;;;;55.15;34.53;;;128.40;2252.80;;;;;;4754311;30;20033;-84
2021/11/10 06:10:18;;;;;;;55.30;31.45;;;128.40;2252.80;;;;;;4753693;30;20079;-84
2021/11/10 06:12:47;;;;;;;53.80;32.35;;;128.40;2252.80;;;;;;4754469;30;20064;-83
2021/11/10 06:15:22;;;;;;;57.20;30.55;;;128.40;2252.80;;;;;;4754299;30;20048;-84
2021/11/10 06:18:03;;;;;;;51.42;31.02;;;128.40;2252.80;;;;;;4774337;30;20062;-83
2021/11/10 06:20:31;;;;;;;58.85;29.83;;;128.40;2252.80;;;;;;4771062;30;20078;-83
2021/11/10 06:23:06;;;;;;;50.70;27.90;;;128.40;2252.80;;;;;;4774355;29;20035;-84
2021/11/10 06:25:40;;;;;;;56.55;32.03;;;128.40;2252.80;;;;;;4757026;30;20178;-84
2021/11/10 06:28:21;;;;;;;68.68;34.35;;;128.40;2252.80;;;;;;4773163;30;20035;-84
2021/11/10 06:30:58;;;;;;;58.70;34.07;;;128.50;2252.80;;;;;;4773272;30;20047;-84
2021/11/10 06:33:35;;;;;;;44.90;27.88;;;128.50;2252.80;;;;;;4772416;30;20047;-85
2021/11/10 06:36:05;;;;;;;50.47;27.77;;;128.50;2252.80;;;;;;4722604;30;20049;-85
2021/11/10 06:38:40;;;;;;;53.53;29.07;;;128.60;2252.80;;;;;;4726890;30;20135;-84
2021/11/10 06:41:20;;;;;;;44.78;29.77;;;128.60;2252.80;;;;;;4754741;30;20040;-85
2021/11/10 06:43:57;;;;;;;54.63;28.58;;;128.60;2252.80;;;;;;4752587;30;20094;-85
2021/11/10 06:46:59;;;;;;;55.92;27.38;;;128.70;2252.80;;;;;;4754353;30;20029;-84
2021/11/10 06:49:36;;;;;;;48.42;28.65;;;128.70;2252.80;;;;;;4757712;30;20025;-85
2021/11/10 08:22:50;;;;;;;25.23;17.75;;;205.60;2252.80;;;;;;4836393;24;20051;-90
2021/11/10 08:25:17;;;;;;;24.88;17.02;;;230.40;2252.80;;;;;;4773590;30;20031;-90
2021/11/10 08:27:44;;;;;;;20.33;15.65;;;230.60;2252.80;;;;;;4773353;30;20118;-88
2021/11/10 08:30:13;;;;;;;20.25;15.00;;;230.80;2252.80;;;;;;4773345;30;20092;-87
2021/11/10 08:32:39;;;;;;;19.27;13.50;;;231.10;2252.80;;;;;;4773523;30;20034;-88
2021/11/10 08:35:06;;;;;;;16.42;12.13;;;231.30;2252.80;;;;;;4773488;30;20043;-88
2021/11/10 08:37:32;;;;;;;18.15;13.95;;;256.20;2252.80;;;;;;4773486;30;20038;-89
2021/11/10 08:39:58;;;;;;;13.80;11.02;;;256.80;2252.80;;;;;;4774079;30;20031;-85
2021/11/10 08:42:29;;;;;;;12.65;10.35;;;358.50;2124.80;;;;;;4773404;30;20507;-88
2021/11/10 08:44:57;;;;;;;12.23;9.68;;;435.80;1638.40;;;;;;4773301;30;20066;-85
2021/11/10 08:47:23;;;;;;;11.48;9.02;;;;;;;;;;4772803;30;20426;-86
2021/11/10 08:49:49;;;;;;;12.27;9.35;;;435.30;1587.20;;;;;;4787788;30;20034;-86
2021/11/10 08:52:19;;;;;;;12.48;9.63;;;384.40;1792.00;;;;;;4773436;30;20118;-96
2021/11/10 08:54:46;;;;;;;14.88;10.32;;;384.00;1843.20;;;;;;4774778;30;20040;-94
2021/11/10 08:57:11;;;;;;;12.52;10.15;;;359.20;1894.40;;;;;;4774246;30;20031;-88
2021/11/10 08:59:38;;;;;;;12.15;8.52;;;358.70;1920.00;;;;;;4773745;30;20088;-87
2021/11/10 09:02:04;;;;;;;12.02;10.20;;;358.50;1971.20;;;;;;4774037;30;20126;-85
2021/11/10 09:04:30;;;;;;;12.70;8.77;;;359.10;1894.40;;;;;;4773018;30;20050;-85
2021/11/10 09:06:57;;;;;;;12.50;8.73;;;409.60;1792.00;;;;;;4772824;29;20389;-87
2021/11/10 09:09:23;;;;;;;9.07;7.20;;;435.60;1664.00;;;;;;4775696;30;20043;-85
2021/11/10 09:11:50;;;;;;;15.38;8.05;;;486.90;1408.00;;;;;;4776309;30;20034;-86
2021/11/10 09:14:18;;;;;;;10.90;7.72;;;537.60;1331.20;;;;;;4775789;30;20413;-87
2021/11/10 09:16:45;;;;;;;8.65;6.40;;;512.30;1356.80;;;;;;4775903;30;20032;-86
2021/11/10 09:19:12;;;;;;;10.18;7.18;;;487.00;1638.40;;;;;;4775930;30;20050;-85
2021/11/10 09:21:40;;;;;;;9.55;7.35;;;538.20;1280.00;;;;;;4792055;29;20051;-86
2021/11/10 09:24:06;;;;;;;6.97;5.40;;;589.50;1126.40;;;;;;4791033;30;20031;-85
2021/11/10 09:26:32;;;;;;;9.25;6.38;;;589.70;1075.20;;;;;;4775824;30;20439;-85
2021/11/10 09:28:58;;;;;;;6.93;5.72;;;538.50;1203.20;;;;;;4791924;30;20039;-86
2021/11/10 09:31:24;;;;;;;8.98;7.00;;;538.30;1203.20;;;;;;4790913;30;20049;-85
2021/11/10 09:33:56;;;;;;;7.30;5.78;;;563.70;1203.20;;;;;;4775877;30;20389;-85
2021/11/10 09:36:22;;;;;;;8.20;6.50;;;589.30;1177.60;;;;;;4775987;30;20031;-85
2021/11/10 09:38:49;;;;;;;5.93;5.32;;;589.60;1075.20;;;;;;4775492;30;20035;-85
2021/11/10 09:41:15;;;;;;;7.70;5.50;;;;;;;;;;4775521;30;20100;-86
2021/11/10 09:43:42;;;;;;;7.40;5.47;;;512.80;1228.80;;;;;;4791641;30;20027;-86
2021/11/10 09:46:12;;;;;;;6.22;5.55;;;512.30;1305.60;;;;;;4775453;30;20035;-86
2021/11/10 09:48:38;;;;;;;8.40;5.13;;;563.80;1228.80;;;;;;4776700;30;20091;-93
2021/11/10 09:53:29;;;;;;;13.32;5.57;;;640.90;998.40;;;;;;4758494;30;20184;-89
2021/11/10 09:55:56;;;;;;;5.05;3.80;;;716.90;870.40;;;;;;4775888;30;20039;-86
2021/11/10 09:58:24;;;;;;;6.80;4.80;;;691.80;844.80;;;;;;4775618;30;20076;-87
2021/11/10 10:00:57;;;;;;;8.57;5.00;;;666.10;921.60;;;;;;4775812;30;20031;-87
2021/11/10 10:03:24;;;;;;;9.07;4.80;;;614.70;1024.00;;;;;;4775452;30;20027;-87
2021/11/10 10:05:52;;;;;;;4.90;4.13;;;614.40;1049.60;;;;;;4775621;30;20092;-87
2021/11/10 10:08:19;;;;;;;12.05;5.03;;;589.60;1049.60;;;;;;4775617;30;20432;-86
2021/11/10 10:10:46;;;;;;;10.85;5.50;;;588.80;1100.80;;;;;;4775576;30;20418;-87
2021/11/10 10:13:13;;;;;;;7.40;4.78;;;564.10;1126.40;;;;;;4791667;30;20454;-87
2021/11/10 10:15:43;;;;;;;5.80;3.85;;;563.20;1177.60;;;;;;4791573;30;20100;-85
2021/11/10 10:18:25;;;;;;;7.03;4.60;;;512.40;1254.40;;;;;;4791361;30;20028;-86
2021/11/10 10:21:02;;;;;;;7.88;5.70;;;486.50;1356.80;;;;;;4774983;29;20039;-86
2021/11/10 10:23:31;;;;;;;7.32;5.40;;;461.60;1433.60;;;;;;4790588;30;20045;-87
2021/11/10 10:26:19;;;;;;;7.45;5.32;;;486.60;1382.40;;;;;;4791442;30;20061;-88
2021/11/10 10:28:58;;;;;;;7.85;4.82;;;487.20;1305.60;;;;;;4791855;30;20031;-86
2021/11/10 10:31:27;;;;;;;5.90;4.40;;;486.70;1356.80;;;;;;4775555;30;20032;-87
2021/11/10 10:34:02;;;;;;;6.90;4.25;;;461.20;1408.00;;;;;;4775392;30;20042;-88
2021/11/10 10:36:30;;;;;;;5.13;3.88;;;;;;;;;;4791310;30;20045;-89
2021/11/10 10:39:03;;;;;;;9.57;4.93;;;538.40;1177.60;;;;;;4791465;30;20031;-88
2021/11/10 10:41:33;;;;;;;28.60;14.35;;;615.00;1075.20;;;;;;4775135;30;20134;-88
2021/11/10 10:44:04;;;;;;;30.42;15.55;;;589.30;1100.80;;;;;;4791321;30;20031;-87
2021/11/10 10:46:32;;;;;;;28.20;13.95;;;537.60;1203.20;;;;;;4794876;29;20438;-84
2021/11/10 10:49:18;;;;;;;15.30;7.53;;;512.20;1254.40;;;;;;4775783;30;20136;-85
2021/11/10 10:51:48;;;;;;;13.93;8.13;;;512.00;1280.00;;;;;;4789813;30;20036;-86
2021/11/10 10:54:14;;;;;;;11.20;6.88;;;512.90;1254.40;;;;;;4789640;30;20152;-85
2021/11/10 10:56:44;;;;;;;9.23;6.15;;;512.90;1254.40;;;;;;4774800;30;20031;-90
2021/11/10 10:59:13;;;;;;;14.77;8.65;;;486.40;1561.60;;;;;;4774785;30;20028;-87
2021/11/10 11:01:53;;;;;;;12.05;6.68;;;461.20;1459.20;;;;;;4774697;30;20039;-88
2021/11/10 11:04:22;;;;;;;26.30;10.45;;;435.90;1510.40;;;;;;4774721;30;20411;-87
2021/11/10 11:06:59;;;;;;;19.33;9.88;;;435.40;1536.00;;;;;;4774657;30;20031;-86
2021/11/10 11:09:28;;;;;;;15.10;7.72;;;410.30;1612.80;;;;;;4774787;30;20028;-88
2021/11/10 11:11:56;;;;;;;11.27;6.90;;;;;;;;;;4774737;30;20546;-87
2021/11/10 11:14:44;;;;;;;12.30;8.27;;;;;;;;;;4789557;30;20035;-87
2021/11/10 11:17:22;;;;;;;15.90;8.68;;;;;;;;;;4789564;30;20032;-87
2021/11/10 11:20:07;;;;;;;15.43;9.15;;;;;;;;;;4788406;30;20023;-87
2021/11/10 11:22:38;;;;;;;9.93;6.63;;;409.60;1689.60;;;;;;4787760;30;20142;-87
2021/11/10 11:25:19;;;;;;;16.80;7.35;;;384.60;1817.60;;;;;;4773994;30;20496;-88
2021/11/10 11:27:57;;;;;;;11.00;7.15;;;384.40;1689.60;;;;;;4787030;30;20176;-85
2021/11/10 11:30:24;;;;;;;11.07;7.30;;;384.50;1715.20;;;;;;4770991;30;20070;-88
2021/11/10 11:32:55;;;;;;;14.25;7.18;;;384.40;1715.20;;;;;;4772311;30;20093;-86
2021/11/10 11:35:37;;;;;;;11.85;7.50;;;384.10;1740.80;;;;;;4756540;30;20048;-85
2021/11/10 11:38:15;;;;;;;8.43;5.72;;;384.40;1664.00;;;;;;4762515;30;20566;-88
2021/11/10 11:40:43;;;;;;;7.20;5.00;;;384.20;1715.20;;;;;;4774197;30;20047;-89
2021/11/10 11:43:14;;;;;;;10.30;6.78;;;384.20;1689.60;;;;;;4774736;30;20496;-90
2021/11/10 11:45:42;;;;;;;12.57;6.90;;;384.20;1715.20;;;;;;4789246;30;20116;-92
2021/11/10 11:48:08;;;;;;;29.60;18.50;;;384.30;1740.80;;;;;;4788524;30;20097;-87
2021/11/10 11:50:35;;;;;;;11.65;7.78;;;384.30;1715.20;;;;;;4773693;30;20042;-88
2021/11/10 11:53:01;;;;;;;9.18;5.38;;;384.10;1715.20;;;;;;4773848;30;20035;-90
2021/11/10 11:55:59;;;;;;;11.75;8.02;;;384.10;1715.20;;;;;;4774061;30;20053;-85
2021/11/10 11:58:47;;;;;;;13.88;6.85;;;384.60;1638.40;;;;;;4774020;30;20027;-88
2021/11/10 12:01:16;;;;;;;11.20;7.60;;;486.80;1356.80;;;;;;4787296;30;20031;-83
2021/11/10 12:03:51;;;;;;;9.70;6.32;;;537.90;1228.80;;;;;;4756130;30;20092;-84
2021/11/10 12:06:20;;;;;;;6.65;4.78;;;512.50;1177.60;;;;;;4769000;30;20108;-94
2021/11/10 12:09:00;;;;;;;11.48;6.45;;;486.80;1305.60;;;;;;4772885;30;20058;-89
2021/11/10 12:11:36;;;;;;;14.80;6.57;;;486.70;1305.60;;;;;;4773682;30;20035;-86
2021/11/10 12:14:06;;;;;;;12.18;5.90;;;461.20;1356.80;;;;;;4773213;30;20077;-83
2021/11/10 12:16:49;;;;;;;15.73;7.93;;;461.50;1331.20;;;;;;4773267;30;20047;-82
2021/11/10 12:19:28;;;;;;;11.98;6.13;;;486.40;1356.80;;;;;;4788017;30;20043;-87
2021/11/10 12:22:02;;;;;;;10.90;5.95;;;563.50;1126.40;;;;;;4772821;30;20083;-85
2021/11/10 12:24:51;;;;;;;9.13;6.13;;;564.00;1100.80;;;;;;4773117;30;20477;-85
2021/11/10 12:27:32;;;;;;;19.55;11.10;;;588.90;1100.80;;;;;;4789293;30;20027;-85
2021/11/10 12:30:28;;;;;;;8.98;6.53;;;564.00;1075.20;;;;;;4787800;30;20038;-85
2021/11/10 12:32:59;;;;;;;12.23;6.82;;;614.40;998.40;;;;;;4787858;30;20042;-81
2021/11/10 12:35:36;;;;;;;12.52;7.65;;;614.80;972.80;;;;;;4772773;30;20043;-81
2021/11/10 12:38:13;;;;;;;12.98;9.20;;;640.20;947.20;;;;;;4772498;30;20027;-82
2021/11/10 12:40:52;;;;;;;10.40;6.82;;;665.70;896.00;;;;;;4772766;30;20039;-82
2021/11/10 12:43:20;;;;;;;38.45;20.58;;;640.40;896.00;;;;;;4787628;30;20024;-83
2021/11/10 12:46:02;;;;;;;24.10;15.43;;;640.50;921.60;;;;;;4772719;30;20031;-82
2021/11/10 12:48:31;;;;;;;17.48;11.88;;;640.50;896.00;;;;;;4772628;30;20126;-81
2021/11/10 12:51:29;;;;;;;15.88;10.35;;;640.10;921.60;;;;;;4772494;30;20123;-83
2021/11/10 12:53:57;;;;;;;7.13;6.15;;;589.00;998.40;;;;;;4772760;30;20035;-83
2021/11/10 12:56:41;;;;;;;11.15;9.15;;;;;;;;;;4788863;30;20100;-84
2021/11/10 12:59:09;;;;;;;14.45;10.20;;;512.10;1203.20;;;;;;4787364;30;20031;-83
2021/11/10 13:01:36;;;;;;;15.15;11.02;;;486.80;1254.40;;;;;;4788346;30;20031;-84
2021/11/10 13:04:02;;;;;;;18.15;12.18;;;461.60;1331.20;;;;;;4772350;30;20039;-84
2021/11/10 13:06:33;;;;;;;21.70;16.13;;;461.10;1382.40;;;;;;4772498;30;20058;-89
2021/11/10 13:11:53;;;;;;;19.02;10.00;;;435.40;1689.60;;;;;;4788996;30;20093;-84
2021/11/10 13:14:22;;;;;;;11.27;8.18;;;410.30;1484.80;;;;;;4772749;30;20039;-84
2021/11/10 13:16:59;;;;;;;23.15;14.23;;;410.20;1484.80;;;;;;4772865;30;20035;-85
2021/11/10 13:22:58;;;;;;;13.80;10.60;;;409.70;1536.00;;;;;;4750997;30;20064;-85
2021/11/10 13:25:27;;;;;;;18.88;13.93;;;384.50;1587.20;;;;;;4780735;30;20152;-83
2021/11/10 13:27:54;;;;;;;47.78;28.08;;;384.10;1612.80;;;;;;4772421;30;20023;-86
2021/11/10 13:30:39;;;;;;;43.28;27.10;;;384.20;1612.80;;;;;;4788497;30;20390;-87
2021/11/10 13:33:39;;;;;;;25.92;15.88;;;384.40;1612.80;;;;;;4772596;30;20517;-86
2021/11/10 13:36:12;;;;;;;44.40;27.63;;;384.50;1587.20;;;;;;4772301;30;20040;-86
2021/11/10 13:38:56;;;;;;;65.18;37.75;;;384.90;1536.00;;;;;;4771989;30;20039;-85
2021/11/10 13:41:46;;;;;;;39.85;23.77;;;410.40;1510.40;;;;;;4772527;30;20401;-85
2021/11/10 13:44:26;;;;;;;30.73;20.58;;;435.70;1433.60;;;;;;4788397;30;20042;-85
2021/11/10 13:47:02;;;;;;;39.45;25.08;;;435.20;1484.80;;;;;;4772282;30;20070;-86
2021/11/10 13:49:31;;;;;;;30.70;22.65;;;410.20;1510.40;;;;;;4788459;30;20042;-85
2021/11/10 13:52:04;;;;;;;58.05;39.53;;;409.90;1561.60;;;;;;4772366;30;20042;-87
2021/11/10 13:54:37;;;;;;;27.83;20.48;;;409.60;1587.20;;;;;;4788876;29;20134;-87
2021/11/10 13:57:16;;;;;;;50.78;33.60;;;384.50;1587.20;;;;;;4792244;30;20037;-89
2021/11/10 13:59:44;;;;;;;60.05;30.75;;;384.30;1612.80;;;;;;4775863;30;20039;-84
2021/11/10 14:02:22;;;;;;;25.20;16.67;;;384.10;1612.80;;;;;;4775582;30;20118;-92
2021/11/10 14:04:51;;;;;;;19.58;13.15;;;359.20;1638.40;;;;;;4775822;30;20027;-92
2021/11/10 14:07:21;;;;;;;36.10;21.35;;;358.80;1715.20;;;;;;4775895;30;20485;-90
2021/11/10 14:09:51;;;;;;;29.48;19.17;;;358.60;1740.80;;;;;;4775866;30;20568;-91
2021/11/10 14:12:27;;;;;;;40.95;27.13;;;333.70;1766.40;;;;;;4775862;30;20390;-92
2021/11/10 14:15:05;;;;;;;35.25;25.92;;;333.50;1792.00;;;;;;4775842;30;20485;-92
2021/11/10 14:17:36;;;;;;;35.90;24.02;;;333.40;1817.60;;;;;;4773384;30;20039;-93
2021/11/10 14:20:08;;;;;;;33.25;22.48;;;333.10;1843.20;;;;;;4776131;30;20036;-88
2021/11/10 14:22:35;;;;;;;25.35;17.00;;;332.90;1843.20;;;;;;4775676;30;20052;-94
2021/11/10 14:25:03;;;;;;;24.88;17.73;;;332.80;1868.80;;;;;;4775912;30;20039;-92
2021/11/10 14:27:37;;;;;;;17.88;12.73;;;308.00;1868.80;;;;;;4775709;30;20477;-94
2021/11/10 14:30:11;;;;;;;;;;;307.90;1868.80;;;;;;4775961;30;20065;-93
2021/11/10 14:32:38;;;;;;;23.02;14.68;;;307.90;1868.80;;;;;;4775532;30;19909;-91
2021/11/10 14:35:06;;;;;;;21.70;13.80;;;307.80;1894.40;;;;;;4775322;30;20040;-92
2021/11/10 14:37:32;;;;;;;17.30;12.00;;;307.80;1894.40;;;;;;4775583;30;20038;-86
2021/11/10 14:40:45;;;;;;;17.45;11.07;;;307.70;1920.00;;;;;;4775474;30;20408;-92
2021/11/10 14:43:33;;;;;;;16.13;12.00;;;307.60;1945.60;;;;;;4775444;30;20695;-92
2021/11/10 14:46:41;;;;;;;20.48;13.93;;;307.40;1945.60;;;;;;4775366;30;20114;-91
2021/11/10 14:49:12;;;;;;;20.17;13.43;;;307.30;1971.20;;;;;;4775173;30;20041;-91
2021/11/10 14:51:46;;;;;;;22.35;13.57;;;307.20;1996.80;;;;;;4789981;30;20122;-91
2021/11/10 14:54:16;;;;;;;20.83;13.18;;;282.40;1996.80;;;;;;4775121;30;20039;-92
2021/11/10 14:56:57;;;;;;;18.83;12.27;;;282.30;2022.40;;;;;;4775244;30;20032;-93
2021/11/10 14:59:30;;;;;;;17.25;12.20;;;282.10;2048.00;;;;;;4775307;30;20027;-89
2021/11/10 15:02:16;;;;;;;16.38;11.95;;;282.10;2048.00;;;;;;4790441;30;20092;-93
2021/11/10 15:04:54;;;;;;;17.20;12.48;;;282.00;2073.60;;;;;;4789951;30;20100;-94
2021/11/10 15:07:25;;;;;;;16.42;12.23;;;281.90;2099.20;;;;;;4790208;30;20093;-94
2021/11/10 15:09:52;;;;;;;20.40;16.05;;;281.90;2099.20;;;;;;4775415;30;20114;-95
2021/11/10 15:12:24;;;;;;;19.92;14.18;;;281.80;2124.80;;;;;;4775865;30;20088;-95
2021/11/10 15:14:54;;;;;;;25.42;15.25;;;281.80;2124.80;;;;;;4775474;30;20126;-96
2021/11/10 15:17:23;;;;;;;25.10;16.23;;;281.70;2124.80;;;;;;4774971;30;20031;-94
2021/11/10 15:19:48;;;;;;;26.98;17.45;;;281.60;2150.40;;;;;;4789827;30;20470;-93
2021/11/10 15:22:20;;;;;;;23.65;15.05;;;281.60;2176.00;;;;;;4793480;29;20048;-92
2021/11/10 15:24:46;;;;;;;28.48;15.75;;;256.90;2150.40;;;;;;4774782;30;20032;-91
2021/11/10 15:27:12;;;;;;;23.23;13.73;;;256.80;2176.00;;;;;;4774643;30;20027;-92
2021/11/10 15:29:39;;;;;;;28.83;16.15;;;256.80;2176.00;;;;;;4776099;30;20097;-93
2021/11/10 15:32:05;;;;;;;27.20;15.52;;;256.70;2176.00;;;;;;4774639;30;20035;-91
2021/11/10 15:34:33;;;;;;;26.30;15.00;;;256.70;2201.60;;;;;;4774222;30;20039;-94
2021/11/10 15:37:00;;;;;;;22.00;13.98;;;256.60;2201.60;;;;;;4774576;30;20391;-92
2021/11/10 15:39:26;;;;;;;23.58;15.80;;;256.50;2227.20;;;;;;4774367;30;20066;-92
2021/11/10 15:41:53;;;;;;;20.80;13.38;;;256.40;2252.80;;;;;;4774440;30;20032;-92
2021/11/10 15:44:19;;;;;;;21.02;14.48;;;256.40;2252.80;;;;;;4790554;30;20031;-91
2021/11/10 15:46:45;;;;;;;21.05;14.02;;;256.40;2252.80;;;;;;4774327;30;20036;-92
2021/11/10 15:49:11;;;;;;;22.45;14.77;;;256.30;2252.80;;;;;;4774041;30;20043;-92
2021/11/10 15:51:38;;;;;;;24.95;13.45;;;256.30;2252.80;;;;;;4774147;30;20042;-87
2021/11/10 15:54:05;;;;;;;24.73;14.32;;;256.20;2252.80;;;;;;4774167;30;20068;-86
2021/11/10 15:56:32;;;;;;;28.00;18.00;;;256.20;2252.80;;;;;;4789997;30;20027;-92
2021/11/10 15:58:58;;;;;;;41.75;25.95;;;256.20;2252.80;;;;;;4774833;30;20485;-93
2021/11/10 16:01:24;;;;;;;39.33;23.40;;;256.10;2252.80;;;;;;4789828;30;20035;-92
2021/11/10 16:03:50;;;;;;;46.30;28.58;;;256.10;2252.80;;;;;;4773953;30;20035;-93
2021/11/10 16:06:17;;;;;;;46.70;28.50;;;256.10;2252.80;;;;;;4759268;30;20047;-86
2021/11/10 16:08:44;;;;;;;49.70;32.03;;;256.00;2252.80;;;;;;4774056;30;20038;-87
2021/11/10 16:11:12;;;;;;;41.55;25.10;;;231.30;2252.80;;;;;;4773756;30;20034;-93
2021/11/10 16:13:39;;;;;;;29.63;20.13;;;231.30;2252.80;;;;;;4773881;30;20031;-93
2021/11/10 16:16:06;;;;;;;23.67;13.93;;;231.30;2252.80;;;;;;4773749;30;20039;-90
2021/11/10 16:18:33;;;;;;;20.85;14.90;;;231.30;2252.80;;;;;;4773583;30;20041;-91
2021/11/10 16:21:00;;;;;;;20.90;15.93;;;231.20;2252.80;;;;;;4773888;30;20061;-93
2021/11/10 16:23:29;;;;;;;19.05;13.90;;;231.20;2252.80;;;;;;4773409;30;20051;-85
2021/11/10 16:25:59;;;;;;;21.10;13.65;;;231.20;2252.80;;;;;;4773828;30;20039;-91
2021/11/10 16:28:29;;;;;;;27.02;19.20;;;231.10;2252.80;;;;;;4773866;30;20027;-85
2021/11/10 16:33:38;;;;;;;18.45;15.07;;;231.00;2252.80;;;;;;4790704;30;20030;-93
2021/11/10 16:36:07;;;;;;;19.98;14.98;;;231.00;2252.80;;;;;;4773495;30;20564;-91
2021/11/10 16:38:33;;;;;;;19.13;14.43;;;231.00;2252.80;;;;;;4774202;30;20084;-92
2021/11/10 16:41:02;;;;;;;22.88;17.33;;;231.00;2252.80;;;;;;4774729;30;20083;-92
2021/11/10 16:43:28;;;;;;;24.10;18.38;;;231.00;2252.80;;;;;;4775223;30;20039;-88
2021/11/10 16:46:03;;;;;;;29.92;20.58;;;231.00;2252.80;;;;;;4778446;30;20031;-93
2021/11/10 16:48:50;;;;;;;30.40;21.90;;;230.90;2252.80;;;;;;4798157;30;20042;-92
2021/11/10 16:51:32;;;;;;;28.73;19.70;;;230.90;2252.80;;;;;;4785900;30;20042;-93
2021/11/10 16:54:27;;;;;;;26.85;18.38;;;230.80;2252.80;;;;;;4789258;30;20597;-93
2021/11/10 16:56:57;;;;;;;25.15;18.10;;;230.80;2252.80;;;;;;4779905;30;20062;-89
2021/11/10 16:59:23;;;;;;;24.35;17.98;;;230.70;2252.80;;;;;;4773052;30;20035;-89
2021/11/10 17:01:49;;;;;;;30.33;20.27;;;230.80;2252.80;;;;;;4774696;30;20031;-92
2021/11/10 17:04:16;;;;;;;32.75;21.95;;;230.70;2252.80;;;;;;4775314;30;20393;-92
2021/11/10 17:06:42;;;;;;;28.98;18.40;;;230.70;2252.80;;;;;;4773361;30;20036;-88